Time;durP1;ratioP1;P1;durP2;ratioP2;P2;SDS_P1;SDS_P2;PMS_P1;PMS_P2;Temp;Humidity;BMP_temperature;BMP_pressure;BME280_temperature;BME280_humidity;BME280_pressure;Samples;Min_cycle;Max_cycle;Signal;HPM_P1;HPM_P2
2023/02/08 00:01:33;;;;;;;53.90;33.30;;;;;;;-10.54;87.66;99184.68;110258;1242;68529;-72
2023/02/08 00:04:03;;;;;;;64.40;35.30;;;;;;;-10.49;88.47;99191.41;110040;1245;58870;-73
2023/02/08 00:06:32;;;;;;;59.20;35.10;;;;;;;-10.47;87.84;99193.70;110043;1244;58878;-73
2023/02/08 00:09:02;;;;;;;51.70;28.70;;;;;;;-10.45;86.79;99199.83;110103;1250;69706;-73
2023/02/08 00:11:32;;;;;;;62.70;35.40;;;;;;;-10.48;86.50;99200.71;109976;1245;68486;-71
2023/02/08 00:14:02;;;;;;;54.90;28.70;;;;;;;-10.53;86.29;99206.28;110094;1250;70232;-71
2023/02/08 00:16:31;;;;;;;50.10;28.60;;;;;;;-10.56;86.07;99215.25;110034;1245;59015;-72
2023/02/08 00:19:01;;;;;;;53.50;33.00;;;;;;;-10.61;87.16;99223.33;110075;1245;58883;-72
2023/02/08 00:21:31;;;;;;;67.10;35.00;;;;;;;-10.67;88.40;99226.13;109799;1246;70665;-72
2023/02/08 00:24:01;;;;;;;65.40;36.00;;;;;;;-10.74;88.64;99230.86;109802;1245;68437;-72
2023/02/08 00:26:31;;;;;;;54.00;33.40;;;;;;;-10.81;87.73;99229.59;109779;1247;68537;-71
2023/02/08 00:29:02;;;;;;;51.80;29.80;;;;;;;-10.84;87.20;99229.46;110044;1245;58899;-72
2023/02/08 00:31:31;;;;;;;59.00;33.50;;;;;;;-10.86;87.12;99233.08;109879;1246;58919;-71
2023/02/08 00:34:01;;;;;;;59.90;33.30;;;;;;;-10.86;87.47;99226.89;109804;1245;71162;-71
2023/02/08 00:36:31;;;;;;;52.10;27.90;;;;;;;-10.85;89.16;99225.21;110054;1246;68328;-74
2023/02/08 00:39:01;;;;;;;;;;;;;;;-10.87;90.27;99228.19;110092;1244;69092;-75
2023/02/08 00:41:31;;;;;;;49.20;27.00;;;;;;;-10.90;90.99;99229.90;110137;1246;58948;-73
2023/02/08 00:44:02;;;;;;;63.60;33.70;;;;;;;-10.92;91.64;99240.92;109950;1245;58924;-72
2023/02/08 00:46:32;;;;;;;62.70;33.10;;;;;;;-10.97;90.93;99239.36;109816;1244;70565;-72
2023/02/08 00:49:01;;;;;;;68.30;36.00;;;;;;;-11.02;91.09;99239.48;109865;1245;68346;-72
2023/02/08 00:51:32;;;;;;;52.30;30.50;;;;;;;-11.12;89.35;99237.58;109982;1246;69447;-72
2023/02/08 00:54:03;;;;;;;45.40;25.90;;;;;;;-11.23;88.99;99232.55;110093;1245;59354;-72
2023/02/08 00:56:33;;;;;;;50.40;31.60;;;;;;;-11.30;89.87;99234.82;110121;1245;58911;-70
2023/02/08 00:59:03;;;;;;;58.60;31.10;;;;;;;-11.34;90.69;99236.83;109773;1248;70599;-72
2023/02/08 01:01:32;;;;;;;55.80;33.30;;;;;;;-11.37;89.33;99235.84;110028;1246;69056;-72
2023/02/08 01:04:02;;;;;;;55.90;31.20;;;;;;;-11.36;91.63;99237.76;110077;1244;68606;-72
2023/02/08 01:06:32;;;;;;;48.00;28.60;;;;;;;-11.36;92.17;99239.94;109897;1245;58876;-72
2023/02/08 01:09:02;;;;;;;;;;;;;;;-11.39;91.86;99238.61;109820;1246;58875;-72
2023/02/08 01:11:33;;;;;;;43.40;26.70;;;;;;;-11.43;91.20;99236.61;110109;1245;71037;-72
2023/02/08 01:14:02;;;;;;;53.00;30.30;;;;;;;-11.45;91.04;99242.23;110145;1246;69077;-72
2023/02/08 01:16:33;;;;;;;41.10;25.90;;;;;;;-11.44;91.33;99248.15;109987;1245;69264;-72
2023/02/08 01:19:03;;;;;;;;;;;;;;;-11.46;90.92;99255.65;109918;1245;59329;-72
2023/02/08 01:21:38;;;;;;;40.10;23.60;;;;;;;-11.49;91.56;99260.20;109782;1245;58836;-72
2023/02/08 01:24:10;;;;;;;55.60;33.30;;;;;;;-11.55;90.41;99258.62;109952;1245;70619;-71
2023/02/08 01:26:40;;;;;;;56.00;33.00;;;;;;;-11.61;88.38;99263.92;109961;1245;68603;-71
2023/02/08 01:29:11;;;;;;;37.60;22.10;;;;;;;-11.66;86.66;99264.52;110027;1245;69426;-72
2023/02/08 01:31:42;;;;;;;52.70;30.80;;;;;;;-11.67;87.11;99269.02;110149;1245;58969;-74
2023/02/08 01:34:13;;;;;;;51.30;29.50;;;;;;;-11.66;88.25;99266.36;110216;1241;58877;-72
2023/02/08 01:36:44;;;;;;;43.70;25.50;;;;;;;-11.68;88.77;99266.83;110450;1245;69645;-72
2023/02/08 01:39:14;;;;;;;;;;;;;;;-11.69;90.27;99274.14;110205;1244;68489;-73
2023/02/08 01:41:46;;;;;;;52.20;27.30;;;;;;;-11.74;89.24;99276.29;110130;1246;69868;-72
2023/02/08 01:44:18;;;;;;;44.10;25.50;;;;;;;-11.78;88.95;99278.11;110079;1245;59291;-72
2023/02/08 01:46:50;;;;;;;43.20;25.10;;;;;;;-11.79;89.26;99280.41;110091;1245;58873;-71
2023/02/08 01:49:29;;;;;;;43.10;23.00;;;;;;;-11.75;90.93;99285.30;110111;1245;69822;-72
2023/02/08 01:52:13;;;;;;;53.70;26.90;;;;;;;-11.73;90.86;99288.42;110119;1245;68509;-72
2023/02/08 01:54:58;;;;;;;50.80;27.00;;;;;;;-11.74;91.21;99290.27;110143;1246;69297;-72
2023/02/08 01:57:29;;;;;;;49.50;27.90;;;;;;;-11.71;90.01;99290.71;109947;1245;58916;-71
2023/02/08 02:00:06;;;;;;;;;;;;;;;-11.70;91.19;99291.08;109760;1246;58935;-72
2023/02/08 02:02:44;;;;;;;40.50;23.70;;;;;;;-11.71;89.49;99299.30;110056;1242;70984;-71
2023/02/08 02:05:17;;;;;;;45.00;24.60;;;;;;;-11.73;89.11;99299.53;110118;1244;69813;-72
2023/02/08 02:07:50;;;;;;;45.70;25.80;;;;;;;-11.81;90.10;99299.73;110175;1245;68355;-73
2023/02/08 02:10:32;;;;;;;38.40;23.20;;;;;;;-11.85;89.85;99307.45;110096;1242;58891;-73
2023/02/08 02:13:15;;;;;;;42.80;22.90;;;;;;;-11.88;88.79;99307.98;109947;1246;58880;-72
2023/02/08 02:15:46;;;;;;;49.10;28.50;;;;;;;-11.91;91.02;99315.59;109888;1245;71332;-73
2023/02/08 02:18:25;;;;;;;52.80;28.40;;;;;;;-11.96;90.70;99321.73;109948;1252;69080;-73
2023/02/08 02:21:14;;;;;;;50.90;27.40;;;;;;;-12.01;90.49;99324.05;109918;1243;69134;-72
2023/02/08 02:24:04;;;;;;;44.80;25.60;;;;;;;-12.03;90.47;99331.31;110146;1246;58896;-73
2023/02/08 02:27:08;;;;;;;36.60;22.20;;;;;;;-12.06;90.55;99332.54;110225;1245;58884;-74
2023/02/08 02:29:59;;;;;;;44.70;25.30;;;;;;;-12.09;91.07;99333.74;110087;1244;70455;-73
2023/02/08 02:32:36;;;;;;;46.10;26.90;;;;;;;-12.11;92.37;99340.20;110158;1245;69744;-72
2023/02/08 02:35:09;;;;;;;49.30;26.60;;;;;;;-12.14;92.27;99341.40;110040;1242;69094;-73
2023/02/08 02:37:47;;;;;;;51.20;26.30;;;;;;;-12.15;91.92;99346.92;110117;1243;58956;-74
2023/02/08 02:40:43;;;;;;;44.20;26.10;;;;;;;-12.13;92.09;99341.80;110145;1245;58877;-72
2023/02/08 02:43:40;;;;;;;44.20;26.40;;;;;;;-12.12;92.00;99347.54;110039;1245;69898;-72
2023/02/08 02:46:29;;;;;;;44.20;22.90;;;;;;;-12.12;92.97;99353.08;110165;1245;69839;-72
2023/02/08 02:49:25;;;;;;;42.80;24.60;;;;;;;-12.13;93.39;99352.36;110040;1245;68389;-73
2023/02/08 02:52:15;;;;;;;45.90;27.10;;;;;;;-12.14;94.31;99355.55;110078;1243;58960;-73
2023/02/08 02:54:52;;;;;;;51.00;27.90;;;;;;;-12.16;94.47;99360.15;110088;1244;58870;-72
2023/02/08 02:57:31;;;;;;;34.40;20.00;;;;;;;-12.17;93.76;99368.00;110126;1244;71042;-73
2023/02/08 03:00:13;;;;;;;56.20;29.70;;;;;;;-12.20;91.25;99371.72;110191;1243;68494;-74
2023/02/08 03:02:43;;;;;;;46.20;27.10;;;;;;;-12.26;89.14;99369.73;110015;1244;69266;-74
2023/02/08 03:05:14;;;;;;;41.80;25.20;;;;;;;-12.32;89.45;99376.36;110109;1244;59009;-72
2023/02/08 03:07:58;;;;;;;42.60;23.10;;;;;;;-12.37;90.66;99372.42;110045;1245;58955;-72
2023/02/08 03:10:41;;;;;;;37.10;22.10;;;;;;;-12.41;90.70;99378.10;110173;1244;70568;-73
2023/02/08 03:13:21;;;;;;;29.40;16.50;;;;;;;-12.47;90.30;99379.63;110189;1245;68770;-72
2023/02/08 03:16:28;;;;;;;35.70;21.30;;;;;;;-12.50;88.38;99384.04;110198;1242;68551;-72
2023/02/08 03:19:10;;;;;;;30.90;18.90;;;;;;;-12.48;87.87;99383.41;110091;1241;58949;-74
2023/02/08 03:22:01;;;;;;;40.20;24.50;;;;;;;-12.47;90.38;99394.90;110193;1244;58834;-73
2023/02/08 03:24:50;;;;;;;59.20;32.20;;;;;;;-12.50;89.96;99399.65;110183;1245;71174;-72
2023/02/08 03:27:24;;;;;;;45.00;27.10;;;;;;;-12.57;89.84;99406.67;110166;1244;70173;-73
2023/02/08 03:30:10;;;;;;;44.40;28.00;;;;;;;-12.63;90.71;99407.56;110225;1244;69383;-73
2023/02/08 03:32:53;;;;;;;48.20;26.90;;;;;;;-12.65;91.84;99410.63;110142;1244;58944;-72
2023/02/08 03:35:33;;;;;;;44.00;26.40;;;;;;;-12.67;92.52;99412.23;110154;1244;58877;-73
2023/02/08 03:38:28;;;;;;;42.20;26.50;;;;;;;-12.70;91.54;99411.76;109913;1245;69818;-73
2023/02/08 03:41:01;;;;;;;54.00;30.50;;;;;;;-12.71;91.03;99414.67;109882;1245;69216;-72
2023/02/08 03:44:13;;;;;;;46.30;26.40;;;;;;;-12.73;92.05;99417.98;109999;1245;68352;-73
2023/02/08 03:46:52;;;;;;;49.00;28.50;;;;;;;-12.74;91.84;99417.57;109361;1250;59093;-73
2023/02/08 03:49:29;;;;;;;50.10;30.30;;;;;;;-12.75;91.44;99425.12;109246;1252;58968;-72
2023/02/08 03:52:03;;;;;;;47.20;26.30;;;;;;;-12.74;90.55;99430.02;109681;1244;69868;-72
2023/02/08 03:54:39;;;;;;;52.40;28.50;;;;;;;-12.71;90.63;99438.08;109793;1245;68534;-72
2023/02/08 03:57:20;;;;;;;38.60;22.00;;;;;;;-12.66;90.49;99439.36;109963;1244;69366;-73
2023/02/08 03:59:59;;;;;;;34.40;19.60;;;;;;;-12.65;89.12;99448.81;110054;1241;58934;-71
2023/02/08 04:02:34;;;;;;;35.90;22.40;;;;;;;-12.63;88.76;99450.21;109851;1245;58904;-72
2023/02/08 04:05:04;;;;;;;36.80;19.50;;;;;;;-12.62;88.96;99448.61;109852;1245;70548;-72
2023/02/08 04:07:35;;;;;;;48.00;26.00;;;;;;;-12.63;89.63;99456.79;109827;1242;68458;-71
2023/02/08 04:10:06;;;;;;;36.80;21.90;;;;;;;-12.68;89.05;99460.05;110056;1244;68864;-71
2023/02/08 04:12:36;;;;;;;;;;;;;;;-12.72;89.42;99462.85;110068;1245;58879;-71
2023/02/08 04:15:06;;;;;;;29.30;19.70;;;;;;;-12.76;89.77;99466.67;110104;1244;59627;-71
2023/02/08 04:17:36;;;;;;;47.00;24.00;;;;;;;-12.82;90.36;99467.92;110135;1244;70391;-72
2023/02/08 04:20:07;;;;;;;38.70;23.00;;;;;;;-12.86;90.15;99472.38;109743;1245;69808;-72
2023/02/08 04:22:37;;;;;;;35.40;21.40;;;;;;;-12.89;89.91;99481.29;109717;1244;69341;-72
2023/02/08 04:25:07;;;;;;;33.30;18.40;;;;;;;-12.92;88.99;99485.69;109809;1244;59753;-72
2023/02/08 04:27:37;;;;;;;39.60;23.80;;;;;;;-12.92;89.46;99486.38;109840;1244;60124;-73
2023/02/08 04:30:08;;;;;;;33.40;20.10;;;;;;;-12.90;91.41;99484.61;110100;1245;71284;-72
2023/02/08 04:32:38;;;;;;;48.30;24.50;;;;;;;-12.90;91.91;99489.84;110021;1246;68324;-72
2023/02/08 04:35:08;;;;;;;45.00;24.20;;;;;;;-12.90;91.96;99488.79;110091;1252;69221;-73
2023/02/08 04:37:37;;;;;;;45.10;24.40;;;;;;;-12.90;92.00;99487.77;109990;1245;59711;-72
2023/02/08 04:40:07;;;;;;;34.50;18.10;;;;;;;-12.92;90.48;99491.90;110177;1244;59695;-72
2023/02/08 04:42:36;;;;;;;44.80;25.10;;;;;;;-12.94;89.51;99493.65;110101;1244;71411;-72
2023/02/08 04:45:05;;;;;;;44.00;25.40;;;;;;;-12.96;91.25;99491.16;110095;1244;68496;-72
2023/02/08 04:47:35;;;;;;;42.20;24.10;;;;;;;-12.99;91.45;99489.02;110000;1244;69319;-73
2023/02/08 04:50:04;;;;;;;38.80;24.50;;;;;;;-13.00;91.78;99493.30;110019;1246;59701;-73
2023/02/08 04:52:34;;;;;;;49.80;28.10;;;;;;;-13.02;92.27;99495.41;110109;1245;59741;-72
2023/02/08 04:55:04;;;;;;;45.10;22.70;;;;;;;-13.02;92.91;99496.38;110098;1243;71228;-72
2023/02/08 04:57:33;;;;;;;33.40;18.90;;;;;;;-13.03;92.99;99496.49;110093;1245;69200;-71
2023/02/08 05:00:04;;;;;;;30.60;23.10;;;;;;;-13.03;93.31;99495.70;109940;1244;69185;-72
2023/02/08 05:02:33;;;;;;;;;;;;;;;-13.03;93.72;99501.23;109895;1245;59709;-73
2023/02/08 05:05:02;;;;;;;36.80;20.30;;;;;;;-13.04;93.43;99503.70;110047;1243;59766;-72
2023/02/08 05:07:32;;;;;;;32.50;18.50;;;;;;;-13.04;94.01;99507.34;109919;1244;70639;-72
2023/02/08 05:10:03;;;;;;;43.10;24.80;;;;;;;-13.04;94.23;99507.83;110023;1245;69836;-72
2023/02/08 05:12:32;;;;;;;54.30;28.70;;;;;;;-13.10;93.36;99512.78;110069;1244;69314;-72
2023/02/08 05:15:01;;;;;;;36.60;20.40;;;;;;;-13.15;92.59;99521.20;110096;1244;60117;-72
2023/02/08 05:17:30;;;;;;;48.60;25.40;;;;;;;-13.20;90.87;99523.09;110251;1244;59759;-72
2023/02/08 05:20:00;;;;;;;50.40;28.70;;;;;;;-13.25;90.50;99525.04;110072;1244;69635;-71
2023/02/08 05:22:31;;;;;;;51.90;27.30;;;;;;;-13.29;91.18;99526.02;109741;1244;69822;-72
2023/02/08 05:25:00;;;;;;;54.60;33.20;;;;;;;-13.32;91.13;99531.01;109826;1244;69686;-72
2023/02/08 05:27:29;;;;;;;59.10;29.40;;;;;;;-13.35;92.00;99534.08;110105;1244;59764;-72
2023/02/08 05:29:59;;;;;;;48.80;27.00;;;;;;;-13.37;92.23;99537.16;110196;1245;59665;-71
2023/02/08 05:32:29;;;;;;;48.60;30.00;;;;;;;-13.38;92.19;99541.80;109769;1244;71146;-71
2023/02/08 05:34:59;;;;;;;54.00;32.00;;;;;;;-13.40;92.31;99546.60;109997;1244;69449;-71
2023/02/08 05:37:28;;;;;;;50.10;29.70;;;;;;;-13.38;93.18;99548.69;109862;1245;68421;-71
2023/02/08 05:39:58;;;;;;;55.10;30.60;;;;;;;-13.37;93.08;99552.45;110117;1241;59740;-72
2023/02/08 05:42:28;;;;;;;48.20;26.70;;;;;;;-13.35;93.03;99559.77;110120;1244;59750;-72
2023/02/08 05:44:57;;;;;;;;;;;;;;;-13.34;92.53;99565.31;109996;1245;71977;-73
2023/02/08 05:47:26;;;;;;;38.50;23.40;;;;;;;-13.33;92.81;99562.85;110077;1244;69827;-71
2023/02/08 05:49:55;;;;;;;37.80;19.70;;;;;;;-13.31;93.22;99566.48;110011;1246;69246;-72
2023/02/08 05:52:24;;;;;;;38.20;20.50;;;;;;;-13.30;92.75;99565.36;109942;1244;59704;-72
2023/02/08 05:54:53;;;;;;;49.60;27.00;;;;;;;-13.27;93.10;99566.58;109879;1244;59654;-72
2023/02/08 05:57:23;;;;;;;48.40;28.10;;;;;;;-13.23;92.99;99572.96;109869;1244;70638;-72
2023/02/08 05:59:52;;;;;;;50.60;29.40;;;;;;;-13.16;93.73;99577.36;109983;1244;69088;-72
2023/02/08 06:02:22;;;;;;;55.00;29.90;;;;;;;-13.08;93.90;99580.34;109834;1245;69174;-73
2023/02/08 06:04:51;;;;;;;46.50;25.90;;;;;;;-13.05;93.38;99588.91;109930;1244;60141;-72
2023/02/08 06:07:19;;;;;;;53.00;28.70;;;;;;;-13.02;92.40;99593.11;109981;1244;59760;-72
2023/02/08 06:09:48;;;;;;;60.10;33.20;;;;;;;-12.90;94.31;99599.48;110190;1244;72142;-72
2023/02/08 06:12:17;;;;;;;59.10;34.20;;;;;;;-12.78;94.25;99599.76;110204;1244;68322;-72
2023/02/08 06:14:46;;;;;;;69.10;40.00;;;;;;;-12.57;92.82;99601.05;109899;1244;67679;-73
2023/02/08 06:17:15;;;;;;;58.50;33.10;;;;;;;-12.39;89.69;99606.40;110025;1244;59696;-73
2023/02/08 06:19:44;;;;;;;51.90;29.90;;;;;;;-12.33;88.69;99609.24;110089;1244;59672;-72
2023/02/08 06:22:13;;;;;;;55.10;31.70;;;;;;;-12.21;88.66;99608.17;110177;1243;70931;-72
2023/02/08 06:24:42;;;;;;;46.00;28.30;;;;;;;-12.08;88.44;99612.02;110126;1241;69791;-73
2023/02/08 06:27:11;;;;;;;48.00;27.20;;;;;;;-12.06;88.13;99610.76;110150;1244;69838;-72
2023/02/08 06:29:40;;;;;;;42.90;25.60;;;;;;;-12.02;88.70;99615.34;110164;1243;59676;-72
2023/02/08 06:32:10;;;;;;;35.60;22.10;;;;;;;-11.99;88.89;99614.54;110179;1244;59680;-71
2023/02/08 06:34:39;;;;;;;44.00;25.80;;;;;;;-11.94;88.84;99613.40;110157;1246;71466;-72
2023/02/08 06:37:08;;;;;;;40.20;24.10;;;;;;;-11.89;88.90;99617.73;110100;1244;69726;-71
2023/02/08 06:39:36;;;;;;;58.90;34.10;;;;;;;-11.81;88.84;99618.45;109790;1245;69035;-71
2023/02/08 06:42:05;;;;;;;44.10;24.20;;;;;;;-11.72;88.95;99619.88;110080;1244;59661;-71
2023/02/08 06:44:34;;;;;;;43.70;27.50;;;;;;;-11.63;89.36;99621.52;110122;1244;59696;-71
2023/02/08 06:47:03;;;;;;;39.70;22.00;;;;;;;-11.51;89.64;99622.45;109947;1245;71755;-72
2023/02/08 06:49:32;;;;;;;39.80;23.40;;;;;;;-11.37;89.35;99623.67;109920;1244;69270;-71
2023/02/08 06:52:01;;;;;;;36.50;19.10;;;;;;;-11.19;89.15;99626.19;110061;1244;69114;-71
2023/02/08 06:54:30;;;;;;;35.40;20.10;;;;;;;-11.00;89.18;99631.33;109923;1244;59712;-71
2023/02/08 06:56:59;;;;;;;34.10;18.90;;;;;;;-10.68;89.16;99632.16;109991;1244;59705;-71
2023/02/08 06:59:29;;;;;;;38.60;23.10;;;;;;;-10.18;87.59;99632.88;110120;1243;70949;-71
2023/02/08 07:01:58;;;;;;;43.00;23.60;;;;;;;-9.62;85.79;99632.95;110144;1244;68273;-71
2023/02/08 07:04:28;;;;;;;38.00;20.10;;;;;;;-9.06;83.16;99637.13;110137;1244;69758;-73
2023/02/08 07:06:57;;;;;;;53.10;30.30;;;;;;;-8.46;80.79;99640.32;110080;1242;59740;-74
2023/02/08 07:09:26;;;;;;;107.90;62.10;;;;;;;-8.25;77.09;99642.33;110049;1244;59639;-71
2023/02/08 07:11:57;;;;;;;107.20;63.00;;;;;;;-8.05;74.84;99644.23;110043;1244;71994;-72
2023/02/08 07:14:26;;;;;;;119.50;72.30;;;;;;;-7.74;73.29;99643.14;109793;1244;69823;-72
2023/02/08 07:16:55;;;;;;;108.90;67.50;;;;;;;-7.37;72.18;99644.41;110232;1241;69376;-73
2023/02/08 07:19:24;;;;;;;96.50;63.30;;;;;;;-7.08;71.09;99650.48;110201;1243;59750;-73
2023/02/08 07:21:54;;;;;;;105.70;63.10;;;;;;;-6.63;69.54;99654.63;110195;1244;59760;-74
2023/02/08 07:24:24;;;;;;;101.00;63.60;;;;;;;-6.31;66.74;99654.06;110097;1244;70741;-73
2023/02/08 07:26:53;;;;;;;107.80;63.70;;;;;;;-6.06;65.58;99658.20;109965;1248;69251;-72
2023/02/08 07:29:22;;;;;;;108.90;69.00;;;;;;;-5.58;65.01;99658.20;110080;1241;69851;-72
2023/02/08 07:31:51;;;;;;;100.30;63.90;;;;;;;-5.14;64.06;99654.91;110012;1241;59689;-72
2023/02/08 07:34:21;;;;;;;93.50;57.50;;;;;;;-4.38;63.93;99656.06;110164;1244;58752;-74
2023/02/08 07:36:51;;;;;;;99.80;62.60;;;;;;;-3.91;61.64;99647.73;110160;1241;71467;-72
2023/02/08 07:39:20;;;;;;;98.80;65.10;;;;;;;-4.11;59.26;99646.97;110103;1243;68145;-73
2023/02/08 07:41:48;;;;;;;92.00;60.50;;;;;;;-4.01;59.81;99650.23;110099;1244;69845;-72
2023/02/08 07:44:17;;;;;;;80.00;54.50;;;;;;;-3.45;59.13;99652.19;110110;1241;59836;-72
2023/02/08 07:46:46;;;;;;;89.70;56.30;;;;;;;-3.44;58.56;99658.02;110090;1244;59695;-71
2023/02/08 07:49:15;;;;;;;71.20;48.30;;;;;;;-2.70;57.07;99657.28;110089;1242;70613;-74
2023/02/08 07:51:44;;;;;;;66.10;43.60;;;;;;;-2.01;55.19;99657.95;110091;1244;69145;-71
2023/02/08 07:54:13;;;;;;;56.20;39.50;;;;;;;-1.56;54.19;99653.20;109970;1244;69301;-72
2023/02/08 07:56:43;;;;;;;66.10;48.10;;;;;;;-1.20;53.15;99659.58;110110;1244;59747;-72
2023/02/08 07:59:13;;;;;;;65.90;45.50;;;;;;;-0.80;53.34;99664.57;110075;1251;59673;-72
2023/02/08 08:01:42;;;;;;;67.20;42.70;;;;;;;-0.56;52.31;99669.73;109991;1243;69814;-71
2023/02/08 08:04:11;;;;;;;57.60;42.20;;;;;;;-0.16;53.10;99672.77;109980;1244;69215;-72
2023/02/08 08:06:40;;;;;;;60.70;43.20;;;;;;;-1.03;51.04;99676.34;110125;1241;69828;-71
2023/02/08 08:09:09;;;;;;;62.50;42.10;;;;;;;-1.47;52.15;99675.86;109973;1244;59747;-72
2023/02/08 08:11:38;;;;;;;64.20;45.30;;;;;;;-1.78;53.08;99680.13;109821;1244;59651;-72
2023/02/08 08:14:06;;;;;;;60.60;43.50;;;;;;;-1.39;52.69;99685.03;110025;1243;72410;-72
2023/02/08 08:16:35;;;;;;;62.70;45.10;;;;;;;-1.13;52.27;99690.11;110069;1244;70092;-72
2023/02/08 08:19:04;;;;;;;64.70;43.90;;;;;;;-0.77;51.62;99697.99;110058;1244;69067;-72
2023/02/08 08:21:33;;;;;;;59.90;43.00;;;;;;;-0.82;51.59;99699.83;110125;1244;59779;-72
2023/02/08 08:24:03;;;;;;;65.00;45.50;;;;;;;-0.42;50.89;99705.64;110119;1244;59682;-72
2023/02/08 08:26:31;;;;;;;68.10;46.80;;;;;;;-0.58;51.07;99705.19;110112;1244;71387;-72
2023/02/08 08:29:01;;;;;;;68.40;48.00;;;;;;;0.52;50.16;99704.64;110112;1244;69038;-72
2023/02/08 08:31:30;;;;;;;69.40;50.20;;;;;;;1.25;48.68;99708.30;110180;1244;67523;-72
2023/02/08 08:33:59;;;;;;;69.00;48.40;;;;;;;0.92;47.94;99709.61;110205;1244;59732;-71
2023/02/08 08:36:29;;;;;;;60.90;42.60;;;;;;;0.68;48.21;99710.21;110115;1244;59686;-72
2023/02/08 08:38:59;;;;;;;63.50;45.80;;;;;;;0.56;48.48;99708.44;110069;1243;70497;-72
2023/02/08 08:41:28;;;;;;;61.00;43.20;;;;;;;0.83;48.37;99706.98;110149;1243;69810;-72
2023/02/08 08:43:57;;;;;;;62.00;44.40;;;;;;;1.85;47.24;99712.08;110281;1242;70215;-73
2023/02/08 08:46:26;;;;;;;60.70;45.50;;;;;;;1.96;46.22;99713.26;110071;1244;59757;-72
2023/02/08 08:48:55;;;;;;;54.70;38.00;;;;;;;1.86;46.00;99717.06;109972;1242;59821;-74
2023/02/08 08:51:24;;;;;;;56.80;42.30;;;;;;;1.59;45.52;99718.96;110058;1244;71291;-71
2023/02/08 08:53:53;;;;;;;54.20;37.20;;;;;;;1.24;45.41;99718.60;110086;1244;68432;-72
2023/02/08 08:56:22;;;;;;;40.80;32.30;;;;;;;1.64;44.93;99718.98;110102;1244;68526;-72
2023/02/08 08:58:50;;;;;;;28.50;21.10;;;;;;;2.07;44.24;99720.14;110067;1244;59701;-68
2023/02/08 09:01:19;;;;;;;26.70;19.30;;;;;;;2.65;42.00;99718.23;110060;1245;59698;-71
2023/02/08 09:03:48;;;;;;;10.30;7.50;;;;;;;3.08;39.26;99715.42;109940;1244;71913;-72
2023/02/08 09:06:17;;;;;;;10.10;7.80;;;;;;;3.06;37.89;99716.30;109962;1244;69238;-71
2023/02/08 09:08:46;;;;;;;9.90;7.70;;;;;;;3.09;37.02;99717.83;109938;1244;69060;-70
2023/02/08 09:11:18;;;;;;;14.60;9.20;;;;;;;3.25;37.14;99720.82;110098;1244;59740;-71
2023/02/08 09:13:51;;;;;;;16.20;12.80;;;;;;;4.38;35.85;99718.27;110065;1244;59706;-73
2023/02/08 09:16:22;;;;;;;22.30;14.30;;;;;;;4.79;36.29;99715.05;109996;1244;71188;-73
2023/02/08 09:18:50;;;;;;;30.60;22.60;;;;;;;5.24;35.87;99717.00;110014;1244;69439;-71
2023/02/08 09:21:24;;;;;;;28.60;21.70;;;;;;;5.42;35.55;99717.79;109883;1244;69287;-70
2023/02/08 09:23:52;;;;;;;29.60;22.20;;;;;;;5.60;36.36;99722.70;110056;1244;59823;-71
2023/02/08 09:26:21;;;;;;;19.20;15.30;;;;;;;6.55;36.78;99718.42;110192;1244;59666;-71
2023/02/08 09:28:51;;;;;;;22.70;18.80;;;;;;;7.08;33.59;99720.62;109431;1242;672028;-73
2023/02/08 09:31:23;;;;;;;29.80;19.30;;;;;;;6.41;33.84;99717.91;109867;1244;69725;-72
2023/02/08 09:33:55;;;;;;;25.50;19.10;;;;;;;5.81;33.38;99721.49;109945;1244;69179;-73
2023/02/08 09:36:26;;;;;;;25.10;20.00;;;;;;;5.71;35.09;99716.63;109869;1245;59760;-72
2023/02/08 09:38:59;;;;;;;20.20;15.50;;;;;;;5.99;32.81;99717.56;110055;1244;59728;-72
2023/02/08 09:41:56;;;;;;;12.50;10.70;;;;;;;5.44;33.00;99718.77;110156;1244;70615;-72
2023/02/08 09:44:40;;;;;;;14.40;11.00;;;;;;;5.82;32.87;99725.95;110107;1242;68710;-72
2023/02/08 09:47:19;;;;;;;14.80;11.50;;;;;;;7.07;33.87;99730.69;109909;1245;69882;-72
2023/02/08 09:49:55;;;;;;;11.70;8.40;;;;;;;7.35;30.64;99733.86;110079;1244;59764;-72
2023/02/08 09:52:51;;;;;;;14.00;11.00;;;;;;;7.04;30.28;99732.84;110108;1243;59746;-72
2023/02/08 09:55:33;;;;;;;10.80;8.40;;;;;;;7.39;29.98;99729.43;110115;1244;71325;-70
2023/02/08 09:58:15;;;;;;;12.20;8.80;;;;;;;7.69;28.75;99724.73;110198;1242;69209;-73
2023/02/08 10:00:49;;;;;;;11.30;8.60;;;;;;;7.21;29.08;99722.23;110046;1244;69869;-71
2023/02/08 10:03:44;;;;;;;12.40;9.50;;;;;;;7.06;29.70;99722.94;110166;1241;59678;-72
2023/02/08 10:06:17;;;;;;;14.40;11.30;;;;;;;6.84;29.76;99720.45;110130;1244;59678;-72
2023/02/08 10:08:50;;;;;;;15.10;12.20;;;;;;;6.87;30.32;99718.82;110165;1244;71814;-72
2023/02/08 10:11:42;;;;;;;14.70;12.30;;;;;;;6.85;30.09;99720.23;109872;1244;69092;-72
2023/02/08 10:14:33;;;;;;;23.50;20.20;;;;;;;7.91;30.20;99721.44;109786;1244;69891;-72
2023/02/08 10:17:09;;;;;;;31.00;24.40;;;;;;;8.06;29.74;99717.59;110083;1244;59754;-74
2023/02/08 10:19:54;;;;;;;26.40;22.90;;;;;;;8.12;29.55;99716.74;110204;1244;59743;-73
2023/02/08 10:22:44;;;;;;;22.80;19.20;;;;;;;7.93;29.86;99721.21;110133;1242;71020;-73
2023/02/08 10:25:16;;;;;;;18.60;14.70;;;;;;;8.06;28.86;99720.02;109989;1244;69477;-73
2023/02/08 10:28:21;;;;;;;20.80;16.20;;;;;;;7.20;29.77;99716.53;110041;1244;69112;-73
2023/02/08 10:30:58;;;;;;;13.90;11.90;;;;;;;7.54;29.97;99716.05;110081;1243;60146;-71
2023/02/08 10:33:41;;;;;;;14.50;12.00;;;;;;;6.93;29.13;99718.50;110096;1244;59687;-72
2023/02/08 10:36:19;;;;;;;15.50;12.80;;;;;;;6.68;29.58;99719.02;110094;1244;71974;-71
2023/02/08 10:38:51;;;;;;;16.40;14.30;;;;;;;7.79;28.82;99717.05;110154;1242;69294;-72
2023/02/08 10:41:25;;;;;;;18.90;15.60;;;;;;;7.95;28.61;99720.45;110095;1245;69088;-72
2023/02/08 10:44:15;;;;;;;19.80;16.20;;;;;;;7.90;29.11;99722.14;110128;1242;59686;-72
2023/02/08 10:46:54;;;;;;;18.90;15.70;;;;;;;8.85;27.42;99717.86;110107;1244;59732;-72
2023/02/08 10:49:34;;;;;;;18.10;14.40;;;;;;;8.58;26.87;99715.05;109928;1242;71171;-72
2023/02/08 10:52:03;;;;;;;;;;;;;;;8.06;28.36;99716.00;110064;1244;69059;-72
2023/02/08 10:54:33;;;;;;;24.00;18.50;;;;;;;8.49;27.81;99717.81;110116;1243;70262;-72
2023/02/08 10:57:11;;;;;;;25.00;19.60;;;;;;;8.29;27.59;99719.40;110122;1244;59761;-73
2023/02/08 10:59:58;;;;;;;23.80;19.40;;;;;;;8.16;27.96;99724.96;110196;1242;59664;-73
2023/02/08 11:02:33;;;;;;;21.80;18.20;;;;;;;7.95;28.17;99726.02;110147;1241;72644;-73
2023/02/08 11:05:08;;;;;;;20.20;16.50;;;;;;;7.46;28.74;99728.23;110207;1243;69203;-73
2023/02/08 11:07:38;;;;;;;18.90;15.50;;;;;;;7.51;29.43;99729.17;110196;1243;69776;-73
2023/02/08 11:10:18;;;;;;;22.90;17.20;;;;;;;7.61;28.48;99732.05;110195;1245;59744;-72
2023/02/08 11:12:58;;;;;;;20.30;16.40;;;;;;;7.56;28.36;99728.54;110169;1241;59745;-73
2023/02/08 11:15:39;;;;;;;18.60;14.40;;;;;;;8.87;27.86;99718.84;110167;1241;71746;-73
2023/02/08 11:18:19;;;;;;;16.50;13.30;;;;;;;9.24;27.57;99716.31;110164;1241;68712;-70
2023/02/08 11:20:51;;;;;;;14.80;11.50;;;;;;;10.26;26.68;99716.31;110163;1244;69177;-72
2023/02/08 11:23:23;;;;;;;15.10;12.20;;;;;;;10.96;25.67;99714.99;110135;1241;59762;-72
2023/02/08 11:25:53;;;;;;;15.60;13.40;;;;;;;10.82;25.21;99716.93;110189;1244;59611;-72
2023/02/08 11:28:25;;;;;;;16.70;13.70;;;;;;;11.43;25.03;99718.77;110174;1242;71823;-72
2023/02/08 11:31:07;;;;;;;18.00;14.30;;;;;;;11.46;24.27;99718.99;110123;1241;68384;-73
2023/02/08 11:33:35;;;;;;;19.50;15.00;;;;;;;11.88;24.71;99721.02;110131;1241;69737;-73
2023/02/08 11:36:08;;;;;;;15.50;13.20;;;;;;;11.69;24.55;99719.66;110156;1247;59709;-73
2023/02/08 11:38:41;;;;;;;16.20;12.40;;;;;;;11.55;23.68;99716.21;110184;1241;59633;-72